• Join FlightAware (Why Join?)
  • Login
  • US Flag 
10:07PM EST


 

Airport Tracker/Info


-or-


 

Live Flight TrackerFlight Track Log ✈ FIN666 ✈ 20-Jan-2014 ✈ EKCH / CPH - EFHK / HEL

Flight Track Log - Related Links

Times and Time Zones

All times are in EST time to prevent confusion due to time zone crossing. See the FIN666 flight status page for this flight to view local times or setup timezone preferences in your user account.

Time Position Orientation Groundspeed Altitude Reporting Facility
EST Latitude Longitude Course Direction KTS MPH feet Rate Location/Type
07:27AM 55.8520 13.1400 49° Northeast  Level Estimated
07:28AM 55.9296 13.3027 50° Northeast  Level Estimated
07:29AM 56.0070 13.4660 50° Northeast  Level Estimated
07:30AM 56.0842 13.6299 50° Northeast  Level Estimated
07:31AM 56.1612 13.7945 50° Northeast  Level Estimated
07:32AM 56.2403 13.9649 50° Northeast  Level Estimated
07:33AM 56.3192 14.1360 50° Northeast  Level Estimated
07:34AM 56.3978 14.3078 50° Northeast  Level Estimated
07:35AM 56.4762 14.4803 51° Northeast  Level Estimated
07:36AM 56.5543 14.6535 51° Northeast  Level Estimated
07:37AM 56.6323 14.8274 51° Northeast  Level Estimated
07:38AM 56.7099 15.0020 51° Northeast  Level Estimated
07:39AM 56.7873 15.1774 51° Northeast  Level Estimated
07:40AM 56.8645 15.3534 51° Northeast  Level Estimated
07:41AM 56.9414 15.5302 51° Northeast  Level Estimated
07:42AM 57.0181 15.7078 52° Northeast  Level Estimated
07:43AM 57.0946 15.8861 52° Northeast  Level Estimated
07:44AM 57.1707 16.0651 52° Northeast  Level Estimated
07:45AM 57.2466 16.2448 52° Northeast  Level Estimated
07:46AM 57.3223 16.4253 52° Northeast  Level Estimated
07:47AM 57.3977 16.6065 52° Northeast  Level Estimated
07:48AM 57.4728 16.7885 52° Northeast  Level Estimated
07:49AM 57.5477 16.9712 53° Northeast  Level Estimated
07:50AM 57.6223 17.1547 53° Northeast  Level Estimated
07:51AM 57.6967 17.3389 53° Northeast  Level Estimated
07:52AM 57.7707 17.5239 53° Northeast  Level Estimated
07:53AM 57.8445 17.7096 53° Northeast  Level Estimated
07:54AM 57.9180 17.8961 53° Northeast  Level Estimated
07:55AM 57.9913 18.0834 54° Northeast  Level Estimated
07:56AM 58.0643 18.2714 54° Northeast  Level Estimated
07:57AM 58.1370 18.4602 54° Northeast  Level Estimated
07:58AM 58.2094 18.6498 54° Northeast  Level Estimated
07:59AM 58.2816 18.8401 54° Northeast  Level Estimated
08:00AM 58.3534 19.0312 54° Northeast  Level Estimated
08:01AM 58.4250 19.2232 54° Northeast  Level Estimated
08:02AM 58.4963 19.4158 55° Northeast  Level Estimated
08:03AM 58.5672 19.6093 55° Northeast  Level Estimated
08:04AM 58.6380 19.8035 55° Northeast  Level Estimated
08:05AM 58.7084 19.9986 55° Northeast  Level Estimated
08:06AM 58.7785 20.1944 55° Northeast  Level Estimated
08:07AM 58.8483 20.3910 55° Northeast  Level Estimated
08:08AM 58.9178 20.5884 56° Northeast  Level Estimated
08:09AM 58.9870 20.7866 56° Northeast  Level Estimated
08:10AM 59.0559 20.9856 56° Northeast  Level Estimated
08:11AM 59.1245 21.1854 56° Northeast  Level Estimated
08:12AM 59.1928 21.3860 56° Northeast  Level Estimated
08:13AM 59.2608 21.5874 56° Northeast  Level Estimated
08:14AM 59.3284 21.7896 57° Northeast  Level Estimated
08:15AM 59.3958 21.9925 57° Northeast  Level Estimated
08:16AM 59.4628 22.1964 57° Northeast  Level Estimated
08:17AM 59.5296 22.4010 57° Northeast  Level Estimated
08:18AM 59.5895 22.5864 57° Northeast  Level Estimated
08:19AM 59.6492 22.7725 58° Northeast  Level Estimated
08:20AM 59.7086 22.9592 58° Northeast  Level Estimated
08:21AM 59.7678 23.1466 58° Northeast  Level Estimated
08:22AM 59.8267 23.3347 58° Northeast  Level Estimated
08:23AM 59.8853 23.5234 58° Northeast  Level Estimated
08:24AM 59.9437 23.7128 58° Northeast  Level Estimated
08:25AM 60.0018 23.9029 59° Northeast  Level Estimated
08:26AM 60.0596 24.0936 59° Northeast  Level Estimated
08:27AM 60.1171 24.2850 59° Northeast  Level Estimated
08:28AM 60.1744 24.4771 59° Northeast  Level Estimated
08:29AM 60.2314 24.6698 59° Northeast  Level Estimated
08:30AM 60.2881 24.8632 59° Northeast  Level Estimated
08:31AM 60.3172 24.9633 60° Northeast  Level Estimated
08:32AM 60.3172 24.9633 37° Northeast  Level Estimated
08:33AM 60.3172 24.9633 37° Northeast  Level Estimated
08:34AM 60.3172 24.9633 37° Northeast  Level Estimated
08:35AM 60.3172 24.9633 37° Northeast  Level Estimated
08:36AM 60.3172 24.9633 37° Northeast  Level Estimated
08:37AM 60.3172 24.9633 37° Northeast  Level Estimated
08:38AM 60.3172 24.9633 37° Northeast  Level Estimated
08:39AM 60.3172 24.9633 37° Northeast  Level Estimated
08:40AM 60.3172 24.9633 37° Northeast  Level Estimated
08:41AM 60.3172 24.9633 37° Northeast  Level Estimated
08:42AM 60.3172 24.9633 37° Northeast  Level Estimated
08:43AM 60.3172 24.9633 37° Northeast  Level Estimated
08:44AM 60.3172 24.9633 37° Northeast  Level Estimated
08:45AM 60.3172 24.9633 37° Northeast  Level Estimated
08:46AM 60.3172 24.9633 37° Northeast  Level Estimated
08:47AM 60.3172 24.9633 37° Northeast  Level Estimated
08:48AM 60.3172 24.9633 37° Northeast  Level Estimated